Аэропорт: Пулково. Санкт-Петербург

ICAO: ULLI

METAR:
2021-04-21 19:30:00
ULLI 211930Z VRB01MPS 9999 BKN013 02/01 Q1003 R28R/290050 NOSIG
METAR:
2021-04-21 16:57:00
TAF ULLI 211657Z 2118/2218 26003MPS 6000 BKN008 OVC016 TEMPO 2118/2121 3100 -SHRA BR BKN006 BKN016CB BECMG 2120/2121 16003MPS TEMPO 2121/2206 0400 -RASN FG BKN002 OVC011 BECMG 2206/2207 23003MPS BKN016 TEMPO 2207/2218 24004G09MPS 4000 -SHRA BR BKN011 BKN020CB